createdAt,value
2023-02-18T00:02:40.930Z,2.40
2023-02-18T00:07:42.617Z,2.27
2023-02-18T00:12:44.254Z,2.00
2023-02-18T00:17:45.903Z,1.83
2023-02-18T00:22:47.569Z,1.87
2023-02-18T00:27:49.228Z,2.10
2023-02-18T00:32:50.795Z,2.13
2023-02-18T00:37:53.244Z,1.80
2023-02-18T00:42:54.923Z,1.77
2023-02-18T00:47:56.561Z,2.13
2023-02-18T00:52:58.155Z,2.00
2023-02-18T00:57:59.913Z,1.90
2023-02-18T01:03:02.112Z,2.00
2023-02-18T01:08:04.118Z,1.97
2023-02-18T01:13:05.717Z,1.93
2023-02-18T01:18:08.115Z,1.83
2023-02-18T01:23:10.541Z,2.00
2023-02-18T01:28:14.434Z,2.00
2023-02-18T01:33:16.101Z,2.93
2023-02-18T01:38:17.799Z,2.00
2023-02-18T01:43:20.414Z,1.80
2023-02-18T01:48:26.679Z,1.97
2023-02-18T01:53:39.960Z,1.43
2023-02-18T01:58:42.520Z,1.87
2023-02-18T02:03:44.115Z,2.20
2023-02-18T02:08:47.467Z,1.80
2023-02-18T02:13:53.260Z,1.50
2023-02-18T02:19:45.141Z,1.47
2023-02-18T02:24:50.626Z,2.00
2023-02-18T02:30:37.068Z,1.50
2023-02-18T02:36:03.655Z,1.70
2023-02-18T02:41:14.266Z,1.37
2023-02-18T02:46:48.335Z,1.77
2023-02-18T02:52:00.720Z,1.43
2023-02-18T02:57:17.335Z,1.50
2023-02-18T03:02:45.266Z,1.17
2023-02-18T03:07:52.262Z,1.27
2023-02-18T03:13:12.816Z,1.40
2023-02-18T03:18:36.904Z,0.90
2023-02-18T03:23:44.347Z,1.20
2023-02-18T03:28:46.464Z,1.10
2023-02-18T03:34:01.927Z,1.00
2023-02-18T03:39:07.957Z,0.90
2023-02-18T03:44:10.259Z,0.70
2023-02-18T03:49:13.696Z,1.00
2023-02-18T03:54:15.553Z,0.70
2023-02-18T03:59:17.818Z,0.70
2023-02-18T04:04:19.614Z,0.60
2023-02-18T04:09:21.272Z,0.70
2023-02-18T04:14:22.952Z,0.50
2023-02-18T04:19:24.635Z,0.50
2023-02-18T04:24:26.393Z,0.60
2023-02-18T04:29:28.083Z,0.40
2023-02-18T04:34:29.633Z,0.40
2023-02-18T04:39:31.190Z,0.50
2023-02-18T04:44:32.851Z,0.50
2023-02-18T04:49:34.639Z,0.40
2023-02-18T04:54:36.304Z,0.80
2023-02-18T04:59:38.189Z,0.87
2023-02-18T05:04:39.832Z,0.40
2023-02-18T05:09:41.511Z,0.50
2023-02-18T05:14:43.122Z,0.40
2023-02-18T05:19:44.968Z,0.50
2023-02-18T05:24:46.632Z,0.47
2023-02-18T05:29:48.231Z,0.40
2023-02-18T05:34:49.888Z,0.43
2023-02-18T05:39:51.473Z,0.40
2023-02-18T05:44:53.851Z,0.33
2023-02-18T05:49:56.132Z,0.40
2023-02-18T05:54:57.789Z,0.43
2023-02-18T06:00:00.264Z,0.40
2023-02-18T06:05:02.317Z,0.40
2023-02-18T06:10:05.513Z,0.40
2023-02-18T06:15:07.506Z,0.40
2023-02-18T06:20:09.440Z,0.30
2023-02-18T06:25:11.221Z,0.43
2023-02-18T06:30:13.143Z,0.40
2023-02-18T06:35:14.773Z,0.33
2023-02-18T06:40:16.456Z,0.40
2023-02-18T06:45:18.179Z,0.40
2023-02-18T06:50:19.976Z,0.40
2023-02-18T06:55:21.608Z,0.40
2023-02-18T07:00:23.426Z,0.30
2023-02-18T07:05:25.077Z,0.50
2023-02-18T07:10:26.667Z,0.40
2023-02-18T07:15:28.385Z,0.87
2023-02-18T07:20:30.034Z,0.40
2023-02-18T07:25:31.594Z,0.40
2023-02-18T07:30:33.196Z,0.87
2023-02-18T07:35:34.813Z,0.40
2023-02-18T07:40:36.375Z,0.50
2023-02-18T07:45:39.110Z,0.40
2023-02-18T07:50:42.126Z,0.60
2023-02-18T07:55:49.595Z,0.50
2023-02-18T08:00:53.601Z,0.40
2023-02-18T08:05:56.098Z,1.27
2023-02-18T08:11:02.709Z,0.90
2023-02-18T08:16:11.168Z,0.60
2023-02-18T08:21:12.932Z,0.40
2023-02-18T08:26:14.865Z,0.50
2023-02-18T08:31:28.326Z,0.60
2023-02-18T08:36:30.729Z,0.53
2023-02-18T08:41:32.276Z,0.60
2023-02-18T08:46:35.789Z,0.80
2023-02-18T08:51:38.195Z,1.57
2023-02-18T08:56:40.097Z,2.87
2023-02-18T09:01:41.788Z,3.23
2023-02-18T09:06:43.771Z,1.60
2023-02-18T09:11:45.643Z,1.07
2023-02-18T09:16:47.260Z,2.70
2023-02-18T09:21:48.794Z,1.43
2023-02-18T09:26:50.951Z,1.70
2023-02-18T09:31:52.671Z,2.47
2023-02-18T09:37:01.807Z,1.33
2023-02-18T09:42:07.359Z,1.83
2023-02-18T09:47:15.773Z,1.47
2023-02-18T09:52:23.829Z,2.10
2023-02-18T09:57:44.654Z,2.13
2023-02-18T10:02:56.225Z,2.87
2023-02-18T10:08:05.893Z,2.23
2023-02-18T10:13:14.546Z,1.80
2023-02-18T10:18:22.596Z,1.70
2023-02-18T10:23:24.771Z,2.17
2023-02-18T10:28:26.595Z,0.97
2023-02-18T10:33:31.096Z,1.70
2023-02-18T10:38:49.874Z,2.53
2023-02-18T10:44:11.856Z,1.53
2023-02-18T10:49:35.269Z,2.30
2023-02-18T10:54:59.767Z,2.40
2023-02-18T11:00:15.715Z,1.20
2023-02-18T11:05:26.189Z,2.17
2023-02-18T11:10:32.999Z,1.60
2023-02-18T11:15:35.692Z,3.03
2023-02-18T11:20:37.963Z,1.20
2023-02-18T11:25:40.812Z,1.80
2023-02-18T11:30:48.682Z,1.20
2023-02-18T11:35:52.221Z,1.23
2023-02-18T11:40:56.020Z,0.80
2023-02-18T11:46:10.558Z,0.83
2023-02-18T11:51:38.433Z,1.00
2023-02-18T11:56:40.025Z,0.90
2023-02-18T12:01:49.894Z,1.13
2023-02-18T12:07:06.809Z,0.83
2023-02-18T12:12:20.416Z,0.87
2023-02-18T12:17:37.235Z,1.90
2023-02-18T12:22:42.997Z,1.27
2023-02-18T12:27:58.847Z,3.03
2023-02-18T12:33:12.227Z,1.03
2023-02-18T12:39:00.718Z,0.80
2023-02-18T12:44:10.586Z,0.80
2023-02-18T12:49:52.886Z,0.90
2023-02-18T12:55:18.579Z,1.17
2023-02-18T13:00:57.855Z,1.60
2023-02-18T13:06:48.139Z,0.70
2023-02-18T13:12:15.197Z,0.67
2023-02-18T13:17:18.112Z,1.00
2023-02-18T13:22:22.325Z,0.80
2023-02-18T13:27:44.402Z,0.93
2023-02-18T13:33:18.507Z,0.50
2023-02-18T13:38:56.990Z,0.70
2023-02-18T13:43:58.815Z,0.93
2023-02-18T13:49:00.282Z,1.73
2023-02-18T13:54:11.301Z,0.80
2023-02-18T13:59:22.774Z,0.80
2023-02-18T14:04:43.242Z,0.63
2023-02-18T14:09:45.921Z,0.73
2023-02-18T14:14:47.527Z,0.70
2023-02-18T14:19:56.092Z,0.60
2023-02-18T14:25:21.639Z,0.87
2023-02-18T14:30:23.206Z,0.73
2023-02-18T14:35:46.358Z,0.83
2023-02-18T14:40:56.761Z,0.70
2023-02-18T14:45:58.271Z,0.60
2023-02-18T14:51:01.125Z,0.70
2023-02-18T14:56:05.288Z,0.50
2023-02-18T15:01:29.129Z,0.50
2023-02-18T15:06:36.304Z,0.50
2023-02-18T15:11:41.073Z,0.70
2023-02-18T15:16:44.619Z,0.60
2023-02-18T15:21:48.155Z,0.60
2023-02-18T15:26:51.930Z,0.80
2023-02-18T15:31:55.469Z,0.67
2023-02-18T15:36:59.005Z,0.80
2023-02-18T15:42:25.355Z,0.63
2023-02-18T15:47:27.029Z,0.60
2023-02-18T15:52:31.029Z,1.60
2023-02-18T15:57:32.934Z,0.90
2023-02-18T16:02:34.614Z,0.77
2023-02-18T16:07:52.189Z,0.70
2023-02-18T16:12:55.566Z,0.50
2023-02-18T16:17:58.969Z,0.70
2023-02-18T16:23:03.466Z,0.80
2023-02-18T16:28:16.986Z,0.70
2023-02-18T16:33:18.593Z,1.20
2023-02-18T16:38:22.085Z,0.70
2023-02-18T16:43:26.987Z,0.60
2023-02-18T16:48:40.486Z,0.60
2023-02-18T16:53:42.520Z,0.90
2023-02-18T16:58:44.338Z,0.70
2023-02-18T17:03:48.749Z,0.63
2023-02-18T17:08:50.653Z,1.27
2023-02-18T17:13:53.634Z,0.80
2023-02-18T17:18:55.244Z,0.90
2023-02-18T17:23:56.976Z,0.80
2023-02-18T17:29:00.471Z,0.90
2023-02-18T17:34:05.437Z,1.10
2023-02-18T17:39:13.480Z,1.07
2023-02-18T17:44:20.061Z,1.70
2023-02-18T17:49:22.559Z,1.30
2023-02-18T17:54:25.732Z,0.83
2023-02-18T17:59:30.196Z,0.90
2023-02-18T18:04:31.857Z,1.00
2023-02-18T18:09:33.489Z,1.07
2023-02-18T18:14:35.095Z,1.10
2023-02-18T18:19:38.149Z,1.00
2023-02-18T18:24:39.856Z,1.90
2023-02-18T18:29:42.043Z,1.20
2023-02-18T18:34:44.243Z,1.30
2023-02-18T18:39:46.088Z,1.10
2023-02-18T18:44:47.776Z,1.17
2023-02-18T18:49:49.339Z,1.30
2023-02-18T18:54:51.174Z,1.53
2023-02-18T18:59:52.897Z,1.50
2023-02-18T19:04:54.552Z,1.10
2023-02-18T19:09:56.471Z,1.50
2023-02-18T19:14:58.086Z,1.50
2023-02-18T19:19:59.698Z,1.40
2023-02-18T19:25:01.350Z,1.07
2023-02-18T19:30:04.099Z,1.57
2023-02-18T19:35:06.125Z,1.13
2023-02-18T19:40:09.642Z,1.00
2023-02-18T19:45:11.965Z,1.10
2023-02-18T19:50:15.358Z,1.27
2023-02-18T19:55:16.996Z,1.20
2023-02-18T20:00:20.406Z,1.13
2023-02-18T20:05:22.148Z,0.80
2023-02-18T20:10:25.236Z,1.00
2023-02-18T20:15:26.984Z,0.93
2023-02-18T20:20:28.665Z,0.80
2023-02-18T20:25:31.048Z,1.23
2023-02-18T20:30:32.708Z,0.93
2023-02-18T20:35:34.300Z,0.90
2023-02-18T20:40:35.893Z,0.90
2023-02-18T20:45:38.037Z,1.43
2023-02-18T20:50:39.638Z,1.80
2023-02-18T20:55:46.688Z,1.17
2023-02-18T21:01:02.036Z,0.90
2023-02-18T21:06:13.997Z,0.80
2023-02-18T21:11:17.999Z,1.30
2023-02-18T21:16:21.298Z,0.90
2023-02-18T21:21:23.779Z,0.90
2023-02-18T21:26:27.348Z,0.70
2023-02-18T21:31:31.671Z,1.10
2023-02-18T21:36:34.006Z,0.80
2023-02-18T21:41:38.538Z,0.87
2023-02-18T21:46:41.969Z,0.90
2023-02-18T21:51:57.362Z,0.80
2023-02-18T21:57:00.447Z,0.93
2023-02-18T22:02:03.996Z,1.20
2023-02-18T22:07:05.625Z,1.50
2023-02-18T22:12:07.808Z,1.03
2023-02-18T22:17:09.882Z,1.20
2023-02-18T22:22:11.807Z,0.83
2023-02-18T22:27:13.615Z,0.90
2023-02-18T22:32:15.478Z,0.87
2023-02-18T22:37:17.213Z,0.90
2023-02-18T22:42:18.777Z,1.00
2023-02-18T22:47:20.404Z,1.23
2023-02-18T22:52:21.970Z,1.27
2023-02-18T22:57:23.580Z,1.70
2023-02-18T23:02:25.263Z,1.23
2023-02-18T23:07:27.051Z,1.23
2023-02-18T23:12:28.778Z,1.77
2023-02-18T23:17:30.431Z,1.53
2023-02-18T23:22:33.607Z,1.40
2023-02-18T23:27:35.407Z,0.97
2023-02-18T23:32:39.269Z,0.93
2023-02-18T23:38:14.385Z,0.90
2023-02-18T23:43:15.916Z,1.00
2023-02-18T23:48:17.516Z,1.10
2023-02-18T23:53:19.222Z,1.00
2023-02-18T23:58:20.920Z,0.90
